createdAt,value
2022-07-28T00:02:24.054Z,98580.06
2022-07-28T00:04:50.762Z,98601.78
2022-07-28T00:07:17.421Z,98596.66
2022-07-28T00:09:44.154Z,98606.69
2022-07-28T00:12:10.871Z,98604.56
2022-07-28T00:14:37.607Z,98614.75
2022-07-28T00:17:04.252Z,98643.97
2022-07-28T00:19:30.935Z,98654.91
2022-07-28T00:21:57.755Z,98700.34
2022-07-28T00:24:24.531Z,98720.25
2022-07-28T00:26:51.491Z,98759.03
2022-07-28T00:29:18.369Z,98776.94
2022-07-28T00:31:45.109Z,98773.25
2022-07-28T00:34:12.597Z,98795.75
2022-07-28T00:36:39.567Z,98804.38
2022-07-28T00:39:06.311Z,98792.75
2022-07-28T00:41:33.016Z,98792.78
2022-07-28T00:43:59.739Z,98790.03
2022-07-28T00:46:27.826Z,98768.22
2022-07-28T00:48:55.660Z,98759.13
2022-07-28T00:51:24.809Z,98739.38
2022-07-28T00:53:51.811Z,98717.03
2022-07-28T00:56:19.811Z,98713.34
2022-07-28T00:58:47.605Z,98683.56
2022-07-28T01:01:16.134Z,98682.72
2022-07-28T01:03:46.329Z,98664.22
2022-07-28T01:06:21.980Z,98676.66
2022-07-28T01:09:22.925Z,98683.88
2022-07-28T01:12:20.998Z,98672.56
2022-07-28T01:14:50.614Z,98668.41
2022-07-28T01:17:40.194Z,98673.50
2022-07-28T01:20:16.737Z,98676.38
2022-07-28T01:23:04.669Z,98719.75
2022-07-28T01:25:40.065Z,98752.31
2022-07-28T01:28:14.650Z,98756.13
2022-07-28T01:30:47.895Z,98753.22
2022-07-28T01:33:21.996Z,98758.31
2022-07-28T01:36:01.382Z,98754.59
2022-07-28T01:38:29.468Z,98726.56
2022-07-28T01:40:57.864Z,98717.19
2022-07-28T01:43:26.360Z,98712.84
2022-07-28T01:45:56.749Z,98700.13
2022-07-28T01:48:26.209Z,98686.28
2022-07-28T01:50:54.879Z,98681.78
2022-07-28T01:53:23.178Z,98688.00
2022-07-28T01:55:51.290Z,98690.22
2022-07-28T01:58:22.028Z,98699.50
2022-07-28T02:00:50.895Z,98726.09
2022-07-28T02:03:22.460Z,98756.38
2022-07-28T02:05:50.423Z,98758.63
2022-07-28T02:08:20.341Z,98778.66
2022-07-28T02:11:10.169Z,98764.03
2022-07-28T02:13:38.477Z,98772.66
2022-07-28T02:16:08.476Z,98758.34
2022-07-28T02:18:37.537Z,98769.69
2022-07-28T02:21:05.313Z,98782.72
2022-07-28T02:23:33.677Z,98783.72
2022-07-28T02:26:05.989Z,98793.94
2022-07-28T02:28:33.428Z,98819.59
2022-07-28T02:31:16.973Z,98832.22
2022-07-28T02:33:58.802Z,98850.69
2022-07-28T02:36:31.475Z,98861.72
2022-07-28T02:39:05.363Z,98867.94
2022-07-28T02:41:36.701Z,98880.25
2022-07-28T02:44:12.067Z,98884.09
2022-07-28T02:46:45.164Z,98911.50
2022-07-28T02:49:18.066Z,98911.22
2022-07-28T02:51:45.877Z,98925.88
2022-07-28T02:54:14.882Z,98941.53
2022-07-28T02:56:42.344Z,98940.44
2022-07-28T02:59:22.024Z,98959.41
2022-07-28T03:01:50.126Z,98960.53
2022-07-28T03:04:38.186Z,98967.56
2022-07-28T03:07:05.792Z,98984.63
2022-07-28T03:09:40.882Z,98981.94
2022-07-28T03:12:08.900Z,99005.72
2022-07-28T03:14:35.736Z,99006.22
2022-07-28T03:17:02.655Z,99008.94
2022-07-28T03:19:29.418Z,99022.81
2022-07-28T03:21:56.050Z,99019.63
2022-07-28T03:24:29.948Z,99032.09
2022-07-28T03:27:15.324Z,99036.09
2022-07-28T03:29:46.885Z,99042.63
2022-07-28T03:32:13.725Z,99047.59
2022-07-28T03:34:40.652Z,99048.75
2022-07-28T03:37:12.908Z,99058.16
2022-07-28T03:39:47.057Z,99074.31
2022-07-28T03:42:18.521Z,99064.22
2022-07-28T03:44:48.809Z,99077.03
2022-07-28T03:47:16.516Z,99066.00
2022-07-28T03:49:46.351Z,99083.72
2022-07-28T03:52:12.982Z,99101.00
2022-07-28T03:54:39.797Z,99096.19
2022-07-28T03:57:06.443Z,99114.09
2022-07-28T03:59:33.726Z,99112.31
2022-07-28T04:02:00.415Z,99114.25
2022-07-28T04:04:27.077Z,99128.63
2022-07-28T04:06:53.855Z,99124.97
2022-07-28T04:09:20.483Z,99133.91
2022-07-28T04:11:47.193Z,99144.97
2022-07-28T04:14:16.860Z,99150.88
2022-07-28T04:16:44.628Z,99161.41
2022-07-28T04:19:11.600Z,99151.19
2022-07-28T04:21:38.325Z,99156.31
2022-07-28T04:24:05.473Z,99154.88
2022-07-28T04:26:32.189Z,99164.78
2022-07-28T04:28:58.816Z,99158.84
2022-07-28T04:31:30.867Z,99164.63
2022-07-28T04:33:57.561Z,99175.81
2022-07-28T04:36:24.182Z,99183.50
2022-07-28T04:38:50.789Z,99183.97
2022-07-28T04:41:17.423Z,99182.88
2022-07-28T04:43:45.441Z,99182.88
2022-07-28T04:46:15.180Z,99194.38
2022-07-28T04:48:43.878Z,99199.97
2022-07-28T04:51:10.598Z,99202.06
2022-07-28T04:53:37.337Z,99214.06
2022-07-28T04:56:04.273Z,99223.69
2022-07-28T04:58:31.446Z,99231.84
2022-07-28T05:00:59.684Z,99239.34
2022-07-28T05:03:26.404Z,99229.25
2022-07-28T05:05:54.872Z,99245.28
2022-07-28T05:08:25.852Z,99248.31
2022-07-28T05:10:53.487Z,99247.66
2022-07-28T05:13:20.309Z,99255.81
2022-07-28T05:15:46.921Z,99250.06
2022-07-28T05:18:13.528Z,99252.78
2022-07-28T05:20:40.168Z,99254.84
2022-07-28T05:23:06.874Z,99264.13
2022-07-28T05:25:33.536Z,99265.09
2022-07-28T05:28:00.188Z,99259.50
2022-07-28T05:30:27.001Z,99260.78
2022-07-28T05:32:53.963Z,99253.41
2022-07-28T05:35:21.192Z,99270.88
2022-07-28T05:37:47.865Z,99264.78
2022-07-28T05:40:15.907Z,99272.59
2022-07-28T05:42:43.804Z,99279.63
2022-07-28T05:45:16.453Z,99274.00
2022-07-28T05:47:50.074Z,99285.22
2022-07-28T05:50:17.788Z,99293.53
2022-07-28T05:52:45.176Z,99297.38
2022-07-28T05:55:12.297Z,99298.50
2022-07-28T05:57:39.849Z,99301.66
2022-07-28T06:00:09.445Z,99324.13
2022-07-28T06:02:36.229Z,99325.69
2022-07-28T06:05:03.056Z,99332.59
2022-07-28T06:07:43.193Z,99339.78
2022-07-28T06:10:13.519Z,99344.06
2022-07-28T06:12:48.251Z,99342.31
2022-07-28T06:15:20.892Z,99352.56
2022-07-28T06:17:48.229Z,99358.34
2022-07-28T06:20:14.982Z,99353.97
2022-07-28T06:22:49.915Z,99369.50
2022-07-28T06:25:21.987Z,99375.78
2022-07-28T06:27:51.289Z,99384.41
2022-07-28T06:30:19.219Z,99379.75
2022-07-28T06:32:46.888Z,99388.19
2022-07-28T06:35:16.565Z,99386.13
2022-07-28T06:37:50.287Z,99394.44
2022-07-28T06:40:20.004Z,99389.25
2022-07-28T06:42:47.233Z,99406.44
2022-07-28T06:45:19.634Z,99425.53
2022-07-28T06:47:49.913Z,99432.44
2022-07-28T06:50:25.524Z,99434.19
2022-07-28T06:52:58.826Z,99434.44
2022-07-28T06:55:26.269Z,99435.41
2022-07-28T06:58:01.606Z,99446.72
2022-07-28T07:00:28.321Z,99441.66
2022-07-28T07:02:54.991Z,99446.41
2022-07-28T07:05:21.642Z,99446.94
2022-07-28T07:07:48.470Z,99449.94
2022-07-28T07:10:15.290Z,99454.09
2022-07-28T07:12:41.956Z,99462.44
2022-07-28T07:15:09.279Z,99453.69
2022-07-28T07:17:37.726Z,99470.13
2022-07-28T07:20:08.637Z,99460.56
2022-07-28T07:22:41.483Z,99466.47
2022-07-28T07:25:10.360Z,99456.34
2022-07-28T07:27:37.538Z,99473.66
2022-07-28T07:30:06.552Z,99485.81
2022-07-28T07:32:33.295Z,99490.91
2022-07-28T07:34:59.966Z,99476.78
2022-07-28T07:37:26.837Z,99466.13
2022-07-28T07:39:53.536Z,99470.16
2022-07-28T07:42:20.229Z,99469.19
2022-07-28T07:44:51.648Z,99474.28
2022-07-28T07:47:20.104Z,99481.16
2022-07-28T07:49:46.928Z,99493.75
2022-07-28T07:52:14.692Z,99496.28
2022-07-28T07:54:41.829Z,99497.88
2022-07-28T07:57:09.054Z,99495.59
2022-07-28T07:59:35.708Z,99504.00
2022-07-28T08:02:02.475Z,99503.88
2022-07-28T08:04:29.472Z,99506.41
2022-07-28T08:06:56.386Z,99518.88
2022-07-28T08:09:23.612Z,99516.94
2022-07-28T08:11:50.530Z,99514.34
2022-07-28T08:14:18.290Z,99518.13
2022-07-28T08:16:45.291Z,99526.19
2022-07-28T08:19:11.929Z,99531.88
2022-07-28T08:21:38.650Z,99525.38
2022-07-28T08:24:05.637Z,99536.72
2022-07-28T08:26:32.307Z,99544.28
2022-07-28T08:28:59.099Z,99528.84
2022-07-28T08:31:25.884Z,99534.59
2022-07-28T08:33:55.325Z,99550.63
2022-07-28T08:36:22.497Z,99547.38
2022-07-28T08:38:49.203Z,99549.47
2022-07-28T08:42:04.479Z,99562.59
2022-07-28T08:44:40.013Z,99561.25
2022-07-28T08:47:11.385Z,99563.25
2022-07-28T08:49:41.450Z,99554.25
2022-07-28T08:52:12.645Z,99564.75
2022-07-28T08:54:45.581Z,99567.09
2022-07-28T08:57:42.117Z,99577.44
2022-07-28T09:00:11.100Z,99576.66
2022-07-28T09:02:41.360Z,99570.81
2022-07-28T09:05:09.409Z,99577.16
2022-07-28T09:07:41.540Z,99582.91
2022-07-28T09:10:09.684Z,99588.13
2022-07-28T09:12:36.834Z,99584.59
2022-07-28T09:15:05.373Z,99600.03
2022-07-28T09:17:33.355Z,99603.13
2022-07-28T09:20:00.891Z,99591.78
2022-07-28T09:22:27.888Z,99597.16
2022-07-28T09:24:54.481Z,99612.44
2022-07-28T09:27:21.122Z,99607.56
2022-07-28T09:29:58.278Z,99606.28
2022-07-28T09:32:25.908Z,99618.59
2022-07-28T09:34:52.973Z,99614.53
2022-07-28T09:37:27.661Z,99628.94
2022-07-28T09:40:04.042Z,99620.25
2022-07-28T09:42:46.873Z,99623.56
2022-07-28T09:45:22.953Z,99621.41
2022-07-28T09:48:10.851Z,99632.00
2022-07-28T09:50:39.395Z,99628.03
2022-07-28T09:53:22.463Z,99619.56
2022-07-28T09:56:01.629Z,99631.31
2022-07-28T09:58:30.301Z,99627.66
2022-07-28T10:01:15.615Z,99645.47
2022-07-28T10:03:49.164Z,99633.38
2022-07-28T10:06:16.972Z,99632.34
2022-07-28T10:08:49.427Z,99636.22
2022-07-28T10:11:20.044Z,99635.19
2022-07-28T10:13:52.533Z,99637.72
2022-07-28T10:16:20.727Z,99635.88
2022-07-28T10:18:48.307Z,99637.13
2022-07-28T10:21:17.093Z,99653.19
2022-07-28T10:23:49.874Z,99641.44
2022-07-28T10:26:17.565Z,99653.78
2022-07-28T10:28:49.270Z,99653.31
2022-07-28T10:31:28.598Z,99647.09
2022-07-28T10:33:59.542Z,99657.59
2022-07-28T10:36:27.157Z,99661.50
2022-07-28T10:39:11.870Z,99649.41
2022-07-28T10:41:41.063Z,99654.41
2022-07-28T10:44:09.961Z,99661.44
2022-07-28T10:46:37.626Z,99661.91
2022-07-28T10:49:05.444Z,99660.56
2022-07-28T10:51:48.827Z,99661.25
2022-07-28T10:54:30.624Z,99660.28
2022-07-28T10:57:04.970Z,99656.09
2022-07-28T11:00:13.117Z,99667.59
2022-07-28T11:02:46.107Z,99670.81
2022-07-28T11:05:34.661Z,99668.34
2022-07-28T11:08:09.630Z,99665.78
2022-07-28T11:10:50.966Z,99653.75
2022-07-28T11:13:24.688Z,99658.41
2022-07-28T11:15:57.129Z,99658.59
2022-07-28T11:18:24.857Z,99660.56
2022-07-28T11:21:00.740Z,99661.25
2022-07-28T11:23:46.649Z,99652.75
2022-07-28T11:26:20.957Z,99661.19
2022-07-28T11:29:08.669Z,99656.31
2022-07-28T11:31:44.626Z,99652.22
2022-07-28T11:34:14.609Z,99646.63
2022-07-28T11:37:04.467Z,99653.91
2022-07-28T11:39:43.827Z,99650.47
2022-07-28T11:42:31.179Z,99647.25
2022-07-28T11:45:35.925Z,99646.53
2022-07-28T11:48:19.077Z,99665.97
2022-07-28T11:51:04.113Z,99666.06
2022-07-28T11:53:37.661Z,99656.22
2022-07-28T11:56:07.440Z,99657.91
2022-07-28T11:58:36.836Z,99654.53
2022-07-28T12:01:21.680Z,99650.34
2022-07-28T12:03:56.299Z,99656.75
2022-07-28T12:06:43.084Z,99665.44
2022-07-28T12:09:11.313Z,99667.66
2022-07-28T12:11:42.489Z,99671.03
2022-07-28T12:14:13.134Z,99666.34
2022-07-28T12:16:45.996Z,99669.94
2022-07-28T12:19:16.483Z,99672.16
2022-07-28T12:21:48.351Z,99668.25
2022-07-28T12:24:18.858Z,99673.94
2022-07-28T12:26:49.255Z,99673.38
2022-07-28T12:29:17.359Z,99668.78
2022-07-28T12:31:59.445Z,99666.47
2022-07-28T12:34:30.380Z,99668.78
2022-07-28T12:37:02.308Z,99679.44
2022-07-28T12:39:30.971Z,99682.19
2022-07-28T12:42:08.991Z,99672.22
2022-07-28T12:44:38.547Z,99676.78
2022-07-28T12:47:09.090Z,99653.16
2022-07-28T12:49:37.244Z,99668.97
2022-07-28T12:52:24.485Z,99672.50
2022-07-28T12:54:56.098Z,99665.00
2022-07-28T12:57:50.852Z,99669.09
2022-07-28T13:00:20.413Z,99669.25
2022-07-28T13:02:48.511Z,99665.56
2022-07-28T13:05:53.643Z,99663.00
2022-07-28T13:08:20.854Z,99664.47
2022-07-28T13:10:49.680Z,99662.72
2022-07-28T13:13:19.280Z,99675.06
2022-07-28T13:16:06.331Z,99671.59
2022-07-28T13:19:04.291Z,99674.63
2022-07-28T13:21:56.015Z,99685.44
2022-07-28T13:24:26.811Z,99682.63
2022-07-28T13:26:53.658Z,99689.84
2022-07-28T13:29:20.477Z,99686.53
2022-07-28T13:31:47.383Z,99683.78
2022-07-28T13:34:14.599Z,99690.59
2022-07-28T13:36:41.620Z,99687.19
2022-07-28T13:39:10.880Z,99684.69
2022-07-28T13:41:57.540Z,99684.59
2022-07-28T13:44:24.452Z,99675.06
2022-07-28T13:46:53.277Z,99682.75
2022-07-28T13:49:22.869Z,99686.28
2022-07-28T13:51:51.186Z,99687.16
2022-07-28T13:54:19.321Z,99678.81
2022-07-28T13:56:47.194Z,99680.69
2022-07-28T13:59:13.932Z,99677.88
2022-07-28T14:01:42.387Z,99678.78
2022-07-28T14:04:14.651Z,99683.63
2022-07-28T14:06:45.032Z,99683.72
2022-07-28T14:09:13.692Z,99686.09
2022-07-28T14:11:49.360Z,99690.44
2022-07-28T14:14:20.175Z,99681.69
2022-07-28T14:16:48.127Z,99684.97
2022-07-28T14:19:16.629Z,99688.28
2022-07-28T14:21:50.377Z,99684.38
2022-07-28T14:24:17.698Z,99684.59
2022-07-28T14:26:44.567Z,99686.94
2022-07-28T14:29:11.859Z,99682.22
2022-07-28T14:31:38.723Z,99692.94
2022-07-28T14:34:05.523Z,99693.09
2022-07-28T14:36:32.224Z,99685.03
2022-07-28T14:38:58.963Z,99689.22
2022-07-28T14:41:26.008Z,99685.44
2022-07-28T14:43:53.003Z,99687.78
2022-07-28T14:46:22.162Z,99694.72
2022-07-28T14:48:56.345Z,99691.78
2022-07-28T14:51:23.035Z,99691.31
2022-07-28T14:53:51.725Z,99689.66
2022-07-28T14:56:18.963Z,99681.59
2022-07-28T14:58:45.645Z,99691.69
2022-07-28T15:01:12.270Z,99695.72
2022-07-28T15:03:43.215Z,99690.25
2022-07-28T15:06:10.646Z,99682.69
2022-07-28T15:08:37.364Z,99685.53
2022-07-28T15:11:04.024Z,99681.78
2022-07-28T15:13:30.647Z,99677.41
2022-07-28T15:15:59.917Z,99681.44
2022-07-28T15:18:26.922Z,99674.72
2022-07-28T15:20:56.111Z,99678.63
2022-07-28T15:23:23.147Z,99675.97
2022-07-28T15:25:50.355Z,99675.66
2022-07-28T15:28:17.765Z,99673.94
2022-07-28T15:30:51.493Z,99688.00
2022-07-28T15:33:20.519Z,99687.78
2022-07-28T15:35:58.549Z,99688.44
2022-07-28T15:38:27.885Z,99689.69
2022-07-28T15:40:55.865Z,99680.75
2022-07-28T15:43:23.794Z,99680.06
2022-07-28T15:45:51.214Z,99684.06
2022-07-28T15:48:18.646Z,99679.03
2022-07-28T15:50:48.666Z,99679.69
2022-07-28T15:53:16.624Z,99684.88
2022-07-28T15:55:47.550Z,99670.72
2022-07-28T15:58:17.839Z,99676.38
2022-07-28T16:00:44.638Z,99682.75
2022-07-28T16:03:11.792Z,99681.97
2022-07-28T16:05:39.000Z,99685.53
2022-07-28T16:08:06.030Z,99679.63
2022-07-28T16:10:32.873Z,99687.81
2022-07-28T16:12:59.536Z,99683.44
2022-07-28T16:15:27.102Z,99670.09
2022-07-28T16:17:54.921Z,99669.44
2022-07-28T16:20:22.514Z,99672.66
2022-07-28T16:22:49.284Z,99675.84
2022-07-28T16:25:20.458Z,99672.69
2022-07-28T16:27:48.416Z,99681.41
2022-07-28T16:30:16.201Z,99682.19
2022-07-28T16:32:43.380Z,99682.97
2022-07-28T16:35:10.642Z,99665.59
2022-07-28T16:37:38.689Z,99679.81
2022-07-28T16:40:06.075Z,99679.78
2022-07-28T16:42:32.763Z,99679.78
2022-07-28T16:45:00.157Z,99680.59
2022-07-28T16:47:28.235Z,99687.72
2022-07-28T16:49:54.878Z,99689.31
2022-07-28T16:52:21.686Z,99682.25
2022-07-28T16:54:48.325Z,99682.63
2022-07-28T16:57:17.272Z,99677.50
2022-07-28T16:59:47.805Z,99685.78
2022-07-28T17:02:15.458Z,99689.31
2022-07-28T17:04:42.197Z,99690.88
2022-07-28T17:07:09.065Z,99695.66
2022-07-28T17:09:36.340Z,99690.09
2022-07-28T17:12:02.984Z,99698.38
2022-07-28T17:14:31.886Z,99701.16
2022-07-28T17:16:58.499Z,99704.31
2022-07-28T17:19:25.201Z,99707.38
2022-07-28T17:21:52.545Z,99707.00
2022-07-28T17:24:19.478Z,99712.13
2022-07-28T17:29:34.803Z,99718.41
2022-07-28T17:32:01.644Z,99724.66
2022-07-28T17:34:28.415Z,99724.22
2022-07-28T17:36:57.595Z,99715.03
2022-07-28T17:39:24.198Z,99724.41
2022-07-28T17:41:51.014Z,99723.56
2022-07-28T17:44:18.064Z,99726.63
2022-07-28T17:46:46.752Z,99724.44
2022-07-28T17:49:15.542Z,99724.78
2022-07-28T17:51:43.495Z,99719.50
2022-07-28T17:54:13.781Z,99728.53
2022-07-28T17:56:41.073Z,99726.13
2022-07-28T17:59:08.189Z,99730.72
2022-07-28T18:01:35.176Z,99733.50
2022-07-28T18:04:02.031Z,99737.38
2022-07-28T18:06:32.298Z,99739.19
2022-07-28T18:09:06.539Z,99748.94
2022-07-28T18:11:58.492Z,99747.56
2022-07-28T18:14:30.225Z,99750.13
2022-07-28T18:16:58.218Z,99745.16
2022-07-28T18:19:25.863Z,99753.72
2022-07-28T18:21:52.565Z,99759.84
2022-07-28T18:24:22.075Z,99760.28
2022-07-28T18:26:52.683Z,99759.50
2022-07-28T18:29:21.135Z,99762.94
2022-07-28T18:31:49.317Z,99761.53
2022-07-28T18:34:16.469Z,99759.63
2022-07-28T18:36:43.662Z,99749.63
2022-07-28T18:39:10.486Z,99758.97
2022-07-28T18:41:46.125Z,99764.28
2022-07-28T18:44:18.598Z,99762.72
2022-07-28T18:46:47.355Z,99765.06
2022-07-28T18:49:15.354Z,99763.81
2022-07-28T18:51:45.269Z,99767.16
2022-07-28T18:54:12.772Z,99765.53
2022-07-28T18:56:39.709Z,99765.19
2022-07-28T18:59:06.368Z,99758.81
2022-07-28T19:01:33.133Z,99774.88
2022-07-28T19:03:59.796Z,99776.28
2022-07-28T19:06:26.506Z,99777.88
2022-07-28T19:08:53.268Z,99782.84
2022-07-28T19:11:20.304Z,99780.63
2022-07-28T19:13:47.737Z,99784.63
2022-07-28T19:16:14.604Z,99774.84
2022-07-28T19:18:41.657Z,99771.91
2022-07-28T19:21:09.187Z,99770.78
2022-07-28T19:23:35.888Z,99765.69
2022-07-28T19:26:02.688Z,99765.34
2022-07-28T19:28:29.602Z,99764.00
2022-07-28T19:30:58.704Z,99764.50
2022-07-28T19:33:25.814Z,99765.66
2022-07-28T19:35:52.550Z,99771.00
2022-07-28T19:38:19.353Z,99769.16
2022-07-28T19:40:48.332Z,99780.66
2022-07-28T19:43:14.925Z,99771.69
2022-07-28T19:45:42.366Z,99771.88
2022-07-28T19:48:09.773Z,99768.84
2022-07-28T19:50:36.896Z,99764.28
2022-07-28T19:53:04.009Z,99760.00
2022-07-28T19:55:33.498Z,99751.50
2022-07-28T19:58:00.185Z,99743.91
2022-07-28T20:00:27.042Z,99746.16
2022-07-28T20:02:53.761Z,99736.09
2022-07-28T20:05:20.535Z,99731.47
2022-07-28T20:07:47.229Z,99730.28
2022-07-28T20:10:14.073Z,99726.59
2022-07-28T20:12:42.073Z,99727.25
2022-07-28T20:15:09.384Z,99730.47
2022-07-28T20:17:39.138Z,99734.16
2022-07-28T20:20:11.726Z,99726.63
2022-07-28T20:22:41.997Z,99733.78
2022-07-28T20:25:12.377Z,99735.09
2022-07-28T20:27:40.951Z,99726.41
2022-07-28T20:30:09.994Z,99727.06
2022-07-28T20:32:37.641Z,99722.63
2022-07-28T20:35:05.417Z,99726.50
2022-07-28T20:37:37.276Z,99731.97
2022-07-28T20:40:10.927Z,99733.75
2022-07-28T20:42:37.638Z,99735.91
2022-07-28T20:45:05.639Z,99746.03
2022-07-28T20:47:34.269Z,99745.22
2022-07-28T20:50:01.538Z,99755.03
2022-07-28T20:52:28.192Z,99758.28
2022-07-28T20:54:55.391Z,99759.28
2022-07-28T20:57:22.907Z,99757.53
2022-07-28T20:59:51.438Z,99757.53
2022-07-28T21:02:22.023Z,99752.06
2022-07-28T21:04:50.557Z,99749.97
2022-07-28T21:08:04.861Z,99745.19
2022-07-28T21:10:06.329Z,99747.28
2022-07-28T21:12:33.936Z,99749.06
2022-07-28T21:15:00.749Z,99748.56
2022-07-28T21:17:27.419Z,99748.25
2022-07-28T21:19:54.065Z,99746.16
2022-07-28T21:22:23.166Z,99745.34
2022-07-28T21:24:54.908Z,99750.13
2022-07-28T21:27:22.582Z,99744.34
2022-07-28T21:29:49.256Z,99742.72
2022-07-28T21:32:15.869Z,99745.59
2022-07-28T21:34:42.564Z,99740.41
2022-07-28T21:37:11.851Z,99744.56
2022-07-28T21:39:39.219Z,99738.13
2022-07-28T21:42:08.345Z,99729.94
2022-07-28T21:44:38.472Z,99721.78
2022-07-28T21:47:06.332Z,99722.53
2022-07-28T21:49:35.237Z,99728.28
2022-07-28T21:52:01.977Z,99694.28
2022-07-28T21:54:28.657Z,99626.13
2022-07-28T21:56:55.291Z,99615.09
2022-07-28T21:59:22.006Z,99624.28
2022-07-28T22:01:48.906Z,99633.13
2022-07-28T22:04:16.309Z,99643.53
2022-07-28T22:06:46.324Z,99648.97
2022-07-28T22:09:14.736Z,99645.63
2022-07-28T22:11:41.930Z,99643.13
2022-07-28T22:14:08.635Z,99577.81
2022-07-28T22:16:35.427Z,99553.56
2022-07-28T22:19:02.125Z,99524.97
2022-07-28T22:21:28.779Z,99461.31
2022-07-28T22:23:55.721Z,99456.97
2022-07-28T22:26:22.385Z,99436.75
2022-07-28T22:28:49.114Z,99423.97
2022-07-28T22:31:15.973Z,99443.84
2022-07-28T22:33:42.594Z,99436.28
2022-07-28T22:36:09.408Z,99428.66
2022-07-28T22:38:36.437Z,99425.34
2022-07-28T22:41:03.541Z,99395.44
2022-07-28T22:43:34.577Z,99399.34
2022-07-28T22:46:01.416Z,99396.44
2022-07-28T22:48:28.986Z,99398.75
2022-07-28T22:50:55.685Z,99405.53
2022-07-28T22:53:22.305Z,99402.34
2022-07-28T22:58:33.287Z,99375.03
2022-07-28T23:00:59.896Z,99376.19
2022-07-28T23:03:28.870Z,99369.28
2022-07-28T23:06:02.028Z,99383.13
2022-07-28T23:08:28.777Z,99367.91
2022-07-28T23:10:55.377Z,99362.41
2022-07-28T23:13:22.283Z,99330.78
2022-07-28T23:15:48.967Z,99346.44
2022-07-28T23:18:15.631Z,99357.97
2022-07-28T23:20:43.549Z,99350.34
2022-07-28T23:23:10.949Z,99343.41
2022-07-28T23:25:41.011Z,99317.69
2022-07-28T23:28:07.879Z,99324.50
2022-07-28T23:30:34.696Z,99342.66
2022-07-28T23:33:01.314Z,99342.56
2022-07-28T23:35:28.291Z,99327.97
2022-07-28T23:37:54.967Z,99295.06
2022-07-28T23:40:22.282Z,99288.31
2022-07-28T23:42:48.988Z,99276.38
2022-07-28T23:45:17.301Z,99249.25
2022-07-28T23:47:43.920Z,99256.34
2022-07-28T23:50:10.711Z,99245.97
2022-07-28T23:52:37.375Z,99243.31
2022-07-28T23:55:04.743Z,99235.22
2022-07-28T23:57:31.694Z,99214.72
2022-07-28T23:59:59.516Z,99227.78
